createdAt,value
2018-07-25T00:01:21.957Z,53.70
2018-07-25T00:03:50.306Z,53.60
2018-07-25T00:06:19.012Z,53.90
2018-07-25T00:08:47.412Z,53.90
2018-07-25T00:11:16.004Z,53.80
2018-07-25T00:13:44.385Z,54.20
2018-07-25T00:16:13.252Z,53.80
2018-07-25T00:18:41.700Z,54.60
2018-07-25T00:21:10.172Z,54.50
2018-07-25T00:23:38.569Z,54.70
2018-07-25T00:26:07.727Z,54.10
2018-07-25T00:28:36.425Z,55.30
2018-07-25T00:31:04.833Z,55.50
2018-07-25T00:33:33.397Z,55.60
2018-07-25T00:36:01.881Z,55.70
2018-07-25T00:38:30.285Z,55.50
2018-07-25T00:40:58.837Z,55.60
2018-07-25T00:45:55.392Z,55.60
2018-07-25T00:50:51.981Z,55.70
2018-07-25T00:53:20.484Z,55.80
2018-07-25T00:55:48.909Z,56.30
2018-07-25T01:00:45.679Z,56.00
2018-07-25T01:03:14.105Z,56.00
2018-07-25T01:05:42.510Z,56.70
2018-07-25T01:08:10.892Z,56.50
2018-07-25T01:10:41.607Z,56.40
2018-07-25T01:13:11.057Z,57.20
2018-07-25T01:15:39.448Z,57.30
2018-07-25T01:18:08.050Z,57.60
2018-07-25T01:20:36.610Z,57.20
2018-07-25T01:23:06.263Z,57.40
2018-07-25T01:25:34.941Z,57.60
2018-07-25T01:28:03.537Z,57.40
2018-07-25T01:30:31.992Z,57.40
2018-07-25T01:33:00.612Z,58.00
2018-07-25T01:35:29.013Z,57.60
2018-07-25T01:37:57.424Z,58.10
2018-07-25T01:40:26.106Z,58.10
2018-07-25T01:42:54.596Z,58.90
2018-07-25T01:45:23.234Z,58.40
2018-07-25T01:47:51.697Z,58.60
2018-07-25T01:50:20.142Z,58.50
2018-07-25T01:52:48.498Z,58.90
2018-07-25T01:55:16.945Z,58.90
2018-07-25T01:57:45.357Z,59.10
2018-07-25T02:00:13.915Z,59.30
2018-07-25T02:02:42.293Z,59.00
2018-07-25T02:05:10.725Z,59.30
2018-07-25T02:07:39.087Z,58.50
2018-07-25T02:10:07.688Z,59.40
2018-07-25T02:12:36.075Z,59.60
2018-07-25T02:15:05.305Z,59.80
2018-07-25T02:17:33.699Z,59.90
2018-07-25T02:22:31.042Z,60.10
2018-07-25T02:24:59.450Z,60.60
2018-07-25T02:29:56.312Z,61.20
2018-07-25T02:34:53.020Z,60.50
2018-07-25T02:37:21.588Z,60.50
2018-07-25T02:39:50.203Z,60.50
2018-07-25T02:42:18.758Z,60.50
2018-07-25T02:47:15.203Z,60.50
2018-07-25T02:49:43.705Z,60.50
2018-07-25T02:52:12.141Z,60.50
2018-07-25T02:54:40.672Z,61.00
2018-07-25T02:57:09.180Z,60.40
2018-07-25T02:59:37.557Z,60.40
2018-07-25T03:02:06.017Z,60.40
2018-07-25T03:04:34.379Z,60.40
2018-07-25T03:07:02.782Z,60.40
2018-07-25T03:09:31.140Z,60.40
2018-07-25T03:12:00.734Z,60.30
2018-07-25T03:14:29.089Z,60.30
2018-07-25T03:16:57.504Z,60.30
2018-07-25T03:19:25.901Z,60.30
2018-07-25T03:21:54.455Z,60.30
2018-07-25T03:24:22.854Z,60.30
2018-07-25T03:26:51.740Z,60.20
2018-07-25T03:29:20.187Z,60.30
2018-07-25T03:31:48.583Z,60.30
2018-07-25T03:34:16.986Z,60.30
2018-07-25T03:36:45.364Z,60.40
2018-07-25T03:39:14.057Z,60.60
2018-07-25T03:41:42.573Z,60.90
2018-07-25T03:44:10.967Z,61.30
2018-07-25T03:46:39.357Z,61.40
2018-07-25T03:49:07.896Z,61.40
2018-07-25T03:51:36.561Z,61.10
2018-07-25T03:54:05.142Z,61.20
2018-07-25T03:56:33.497Z,61.20
2018-07-25T03:59:01.891Z,60.70
2018-07-25T04:01:30.304Z,60.70
2018-07-25T04:03:58.661Z,60.80
2018-07-25T04:06:27.101Z,60.80
2018-07-25T04:08:55.716Z,61.50
2018-07-25T04:11:24.112Z,61.00
2018-07-25T04:13:53.160Z,61.00
2018-07-25T04:16:21.544Z,60.80
2018-07-25T04:18:49.888Z,60.60
2018-07-25T04:21:18.308Z,59.60
2018-07-25T04:23:46.668Z,60.40
2018-07-25T04:26:15.107Z,60.10
2018-07-25T04:28:43.512Z,60.00
2018-07-25T04:31:12.035Z,59.80
2018-07-25T04:33:40.449Z,59.50
2018-07-25T04:36:08.875Z,58.80
2018-07-25T04:38:37.479Z,58.80
2018-07-25T04:41:06.373Z,57.70
2018-07-25T04:43:34.863Z,57.80
2018-07-25T04:46:03.700Z,55.90
2018-07-25T04:48:32.055Z,56.90
2018-07-25T04:51:00.480Z,56.30
2018-07-25T04:53:29.988Z,56.20
2018-07-25T04:55:58.382Z,56.30
2018-07-25T04:58:28.413Z,55.20
2018-07-25T05:00:57.651Z,55.10
2018-07-25T05:03:26.371Z,54.70
2018-07-25T05:05:55.775Z,53.50
2018-07-25T05:08:24.189Z,54.00
2018-07-25T05:10:52.696Z,53.40
2018-07-25T05:13:21.136Z,53.20
2018-07-25T05:15:49.504Z,52.90
2018-07-25T05:18:18.145Z,52.60
2018-07-25T05:20:46.536Z,52.10
2018-07-25T05:25:43.552Z,51.10
2018-07-25T05:28:12.007Z,50.90
2018-07-25T05:30:40.388Z,50.30
2018-07-25T05:33:08.825Z,50.40
2018-07-25T05:35:37.428Z,50.50
2018-07-25T05:38:05.899Z,50.50
2018-07-25T05:40:34.315Z,50.60
2018-07-25T05:43:02.778Z,50.60
2018-07-25T05:45:31.175Z,50.80
2018-07-25T05:47:59.761Z,50.50
2018-07-25T05:50:28.176Z,50.10
2018-07-25T05:52:56.609Z,50.10
2018-07-25T05:55:25.068Z,49.80
2018-07-25T06:00:21.680Z,49.30
2018-07-25T06:02:50.327Z,49.40
2018-07-25T06:05:18.773Z,50.40
2018-07-25T06:07:47.173Z,49.20
2018-07-25T06:10:15.603Z,48.90
2018-07-25T06:12:44.633Z,48.80
2018-07-25T06:15:13.108Z,48.60
2018-07-25T06:20:10.736Z,48.20
2018-07-25T06:22:39.572Z,48.20
2018-07-25T06:25:07.964Z,47.80
2018-07-25T06:27:36.404Z,47.60
2018-07-25T06:30:05.629Z,47.50
2018-07-25T06:32:34.033Z,46.60
2018-07-25T06:35:02.438Z,47.00
2018-07-25T06:37:30.844Z,47.20
2018-07-25T06:39:59.252Z,47.20
2018-07-25T06:42:27.630Z,46.70
2018-07-25T06:44:56.052Z,46.90
2018-07-25T06:47:24.433Z,46.80
2018-07-25T06:49:52.799Z,46.50
2018-07-25T06:52:21.951Z,46.20
2018-07-25T06:54:50.343Z,46.20
2018-07-25T06:57:19.179Z,45.90
2018-07-25T06:59:47.607Z,46.10
2018-07-25T07:02:16.017Z,46.10
2018-07-25T07:04:44.449Z,45.80
2018-07-25T07:07:12.872Z,45.80
2018-07-25T07:09:41.334Z,45.70
2018-07-25T07:12:10.602Z,45.50
2018-07-25T07:14:39.122Z,45.60
2018-07-25T07:17:07.549Z,45.60
2018-07-25T07:19:36.157Z,45.70
2018-07-25T07:22:04.661Z,45.70
2018-07-25T07:24:33.172Z,45.80
2018-07-25T07:27:01.814Z,45.80
2018-07-25T07:29:30.354Z,45.40
2018-07-25T07:31:58.754Z,45.80
2018-07-25T07:34:27.215Z,45.40
2018-07-25T07:36:55.580Z,45.30
2018-07-25T07:39:24.000Z,45.10
2018-07-25T07:41:52.373Z,45.20
2018-07-25T07:44:21.009Z,44.80
2018-07-25T07:46:49.366Z,44.60
2018-07-25T07:49:17.753Z,44.50
2018-07-25T07:51:46.129Z,44.30
2018-07-25T07:54:15.145Z,44.10
2018-07-25T07:56:43.784Z,44.30
2018-07-25T07:59:12.188Z,43.40
2018-07-25T08:01:40.553Z,43.50
2018-07-25T08:04:09.179Z,43.20
2018-07-25T08:06:37.557Z,42.50
2018-07-25T08:09:09.025Z,42.50
2018-07-25T08:11:37.413Z,41.80
2018-07-25T08:14:05.836Z,41.50
2018-07-25T08:16:34.481Z,41.00
2018-07-25T08:19:02.915Z,40.80
2018-07-25T08:21:31.621Z,40.70
2018-07-25T08:24:00.092Z,40.60
2018-07-25T08:26:28.608Z,39.80
2018-07-25T08:28:57.038Z,39.70
2018-07-25T08:33:53.738Z,39.80
2018-07-25T08:36:22.507Z,39.80
2018-07-25T08:38:51.118Z,39.80
2018-07-25T08:41:19.629Z,39.80
2018-07-25T08:43:48.059Z,40.00
2018-07-25T08:46:16.455Z,40.10
2018-07-25T08:48:44.869Z,40.10
2018-07-25T08:51:13.607Z,40.10
2018-07-25T08:53:42.617Z,40.00
2018-07-25T08:56:11.244Z,40.10
2018-07-25T08:58:39.625Z,40.10
2018-07-25T09:01:08.080Z,40.00
2018-07-25T09:03:36.469Z,39.90
2018-07-25T09:06:04.940Z,40.00
2018-07-25T09:08:33.572Z,40.10
2018-07-25T09:11:02.048Z,40.10
2018-07-25T09:13:31.277Z,39.60
2018-07-25T09:15:59.875Z,38.90
2018-07-25T09:18:28.268Z,38.80
2018-07-25T09:20:56.721Z,38.90
2018-07-25T09:23:25.265Z,39.10
2018-07-25T09:25:54.207Z,38.80
2018-07-25T09:28:23.164Z,38.90
2018-07-25T09:30:51.630Z,38.70
2018-07-25T09:33:20.056Z,38.50
2018-07-25T09:35:48.529Z,38.30
2018-07-25T09:38:17.057Z,38.00
2018-07-25T09:40:45.485Z,37.90
2018-07-25T09:43:14.074Z,38.50
2018-07-25T09:45:42.925Z,38.90
2018-07-25T09:48:11.929Z,38.10
2018-07-25T09:50:40.723Z,37.80
2018-07-25T09:53:10.013Z,38.20
2018-07-25T09:55:38.405Z,37.90
2018-07-25T09:58:06.942Z,37.90
2018-07-25T10:00:40.724Z,38.50
2018-07-25T10:03:09.108Z,38.20
2018-07-25T10:05:37.588Z,38.00
2018-07-25T10:08:06.479Z,38.00
2018-07-25T10:10:35.347Z,37.40
2018-07-25T10:13:04.003Z,36.70
2018-07-25T10:15:32.642Z,35.90
2018-07-25T10:18:01.041Z,36.50
2018-07-25T10:22:57.737Z,36.00
2018-07-25T10:25:26.208Z,36.20
2018-07-25T10:27:54.865Z,36.40
2018-07-25T10:30:23.484Z,36.50
2018-07-25T10:32:52.049Z,36.60
2018-07-25T10:35:20.784Z,36.10
2018-07-25T10:37:49.470Z,36.20
2018-07-25T10:40:18.252Z,36.60
2018-07-25T10:42:46.637Z,37.20
2018-07-25T10:45:15.217Z,37.50
2018-07-25T10:47:43.598Z,37.80
2018-07-25T10:50:12.017Z,37.60
2018-07-25T10:52:40.597Z,36.60
2018-07-25T10:55:09.116Z,36.50
2018-07-25T10:57:37.548Z,36.00
2018-07-25T11:00:06.908Z,36.30
2018-07-25T11:02:35.558Z,35.50
2018-07-25T11:05:04.293Z,35.30
2018-07-25T11:07:32.716Z,35.40
2018-07-25T11:10:01.165Z,36.10
2018-07-25T11:12:30.110Z,36.20
2018-07-25T11:14:58.737Z,36.60
2018-07-25T11:17:27.152Z,36.90
2018-07-25T11:19:55.797Z,36.60
2018-07-25T11:22:24.654Z,36.10
2018-07-25T11:24:53.132Z,35.60
2018-07-25T11:27:21.542Z,35.50
2018-07-25T11:29:49.921Z,35.40
2018-07-25T11:32:18.406Z,35.70
2018-07-25T11:34:46.793Z,35.50
2018-07-25T11:37:15.230Z,35.20
2018-07-25T11:39:46.747Z,35.50
2018-07-25T11:42:15.269Z,35.20
2018-07-25T11:44:43.660Z,35.00
2018-07-25T11:47:12.540Z,34.90
2018-07-25T11:49:41.189Z,34.60
2018-07-25T11:52:10.298Z,34.20
2018-07-25T11:54:38.664Z,34.20
2018-07-25T11:57:07.416Z,34.20
2018-07-25T11:59:35.787Z,34.00
2018-07-25T12:02:04.209Z,34.00
2018-07-25T12:04:32.571Z,34.00
2018-07-25T12:09:29.368Z,33.10
2018-07-25T12:11:57.983Z,33.20
2018-07-25T12:14:26.914Z,33.00
2018-07-25T12:16:55.393Z,31.50
2018-07-25T12:19:23.846Z,31.80
2018-07-25T12:21:52.270Z,32.10
2018-07-25T12:24:20.756Z,33.10
2018-07-25T12:26:49.864Z,32.50
2018-07-25T12:29:18.329Z,33.10
2018-07-25T12:31:46.769Z,32.50
2018-07-25T12:34:15.429Z,32.30
2018-07-25T12:36:43.860Z,32.20
2018-07-25T12:39:12.325Z,32.20
2018-07-25T12:41:40.793Z,31.90
2018-07-25T12:44:09.236Z,31.70
2018-07-25T12:46:37.682Z,31.50
2018-07-25T12:49:06.191Z,31.20
2018-07-25T12:51:34.690Z,31.50
2018-07-25T12:54:03.907Z,31.70
2018-07-25T12:56:32.627Z,31.10
2018-07-25T12:59:01.042Z,31.00
2018-07-25T13:03:57.730Z,29.70
2018-07-25T13:06:26.553Z,27.80
2018-07-25T13:08:55.099Z,28.00
2018-07-25T13:11:23.939Z,26.80
2018-07-25T13:13:52.400Z,25.80
2018-07-25T13:16:20.889Z,23.80
2018-07-25T13:18:49.345Z,23.10
2018-07-25T13:21:18.018Z,21.80
2018-07-25T13:23:46.785Z,21.30
2018-07-25T13:26:15.509Z,20.10
2018-07-25T13:28:44.376Z,19.70
2018-07-25T13:31:13.376Z,18.50
2018-07-25T13:33:41.840Z,17.90
2018-07-25T13:36:10.643Z,17.70
2018-07-25T13:38:39.073Z,17.00
2018-07-25T13:41:07.705Z,16.30
2018-07-25T13:43:36.780Z,16.40
2018-07-25T13:46:05.469Z,15.30
2018-07-25T13:48:34.109Z,14.70
2018-07-25T13:51:02.562Z,14.90
2018-07-25T13:53:31.296Z,13.90
2018-07-25T13:55:59.806Z,13.30
2018-07-25T13:58:28.886Z,13.70
2018-07-25T14:03:25.524Z,11.20
2018-07-25T14:05:54.154Z,11.30
2018-07-25T14:08:22.917Z,11.40
2018-07-25T14:10:51.361Z,11.30
2018-07-25T14:13:19.836Z,11.70
2018-07-25T14:15:48.570Z,11.50
2018-07-25T14:18:17.023Z,10.90
2018-07-25T14:20:46.551Z,10.70
2018-07-25T14:23:15.052Z,10.20
2018-07-25T14:25:43.582Z,9.80
2018-07-25T14:28:12.333Z,8.30
2018-07-25T14:30:40.988Z,7.80
2018-07-25T14:33:09.379Z,8.30
2018-07-25T14:35:37.876Z,7.50
2018-07-25T14:38:06.980Z,8.30
2018-07-25T14:40:35.427Z,6.50
2018-07-25T14:43:04.271Z,8.10
2018-07-25T14:45:32.717Z,7.80
2018-07-25T14:48:01.335Z,8.10
2018-07-25T14:50:29.752Z,7.40
2018-07-25T14:52:58.227Z,7.00
2018-07-25T14:55:26.762Z,6.70
2018-07-25T14:57:56.014Z,6.70
2018-07-25T15:00:24.687Z,6.90
2018-07-25T15:02:53.504Z,7.30
2018-07-25T15:05:21.983Z,8.40
2018-07-25T15:07:50.647Z,9.20
2018-07-25T15:10:19.097Z,10.00
2018-07-25T15:12:52.790Z,10.40
2018-07-25T15:15:21.396Z,10.30
2018-07-25T15:17:49.835Z,9.00
2018-07-25T15:20:18.300Z,7.20
2018-07-25T15:22:47.014Z,6.40
2018-07-25T15:25:15.398Z,7.00
2018-07-25T15:27:44.138Z,5.70
2018-07-25T15:30:12.668Z,4.80
2018-07-25T15:32:41.663Z,4.00
2018-07-25T15:35:11.061Z,4.10
2018-07-25T15:37:39.826Z,3.40
2018-07-25T15:40:08.828Z,2.60
2018-07-25T15:42:37.288Z,2.90
2018-07-25T15:45:06.230Z,5.00
2018-07-25T15:47:35.036Z,4.80
2018-07-25T15:50:03.523Z,4.20
2018-07-25T15:52:31.921Z,3.60
2018-07-25T15:57:28.605Z,2.40
2018-07-25T15:59:57.055Z,2.40
2018-07-25T16:02:25.599Z,2.70
2018-07-25T16:04:54.061Z,3.50
2018-07-25T16:07:22.677Z,2.90
2018-07-25T16:09:51.162Z,2.00
2018-07-25T16:12:19.574Z,1.70
2018-07-25T16:17:16.444Z,1.80
2018-07-25T16:19:44.841Z,2.00
2018-07-25T16:22:13.281Z,2.70
2018-07-25T16:24:42.025Z,1.70
2018-07-25T16:27:10.447Z,4.10
2018-07-25T16:29:38.871Z,6.00
2018-07-25T16:32:07.432Z,8.80
2018-07-25T16:34:35.843Z,9.40
2018-07-25T16:37:04.292Z,11.80
2018-07-25T16:39:32.883Z,13.70
2018-07-25T16:42:01.397Z,15.10
2018-07-25T16:44:29.816Z,16.30
2018-07-25T16:46:58.349Z,18.40
2018-07-25T16:49:26.779Z,18.00
2018-07-25T16:51:55.193Z,19.00
2018-07-25T16:54:23.677Z,19.90
2018-07-25T16:56:52.059Z,20.80
2018-07-25T16:59:20.537Z,21.30
2018-07-25T17:01:48.956Z,21.70
2018-07-25T17:04:17.781Z,22.10
2018-07-25T17:06:46.228Z,22.40
2018-07-25T17:09:14.677Z,22.60
2018-07-25T17:11:43.444Z,22.90
2018-07-25T17:14:12.648Z,23.20
2018-07-25T17:16:41.158Z,23.50
2018-07-25T17:19:09.593Z,24.00
2018-07-25T17:21:38.061Z,24.40
2018-07-25T17:24:06.580Z,24.60
2018-07-25T17:26:38.024Z,25.10
2018-07-25T17:29:06.540Z,25.20
2018-07-25T17:31:35.068Z,25.90
2018-07-25T17:34:03.744Z,26.70
2018-07-25T17:36:32.202Z,27.40
2018-07-25T17:39:00.634Z,27.40
2018-07-25T17:41:29.467Z,27.30
2018-07-25T17:43:57.898Z,27.30
2018-07-25T17:46:26.536Z,27.30
2018-07-25T17:48:55.032Z,27.20
2018-07-25T17:51:23.501Z,27.20
2018-07-25T17:53:52.314Z,27.20
2018-07-25T17:58:49.156Z,27.10
2018-07-25T18:01:17.866Z,27.10
2018-07-25T18:03:46.492Z,27.10
2018-07-25T18:06:15.073Z,27.10
2018-07-25T18:08:43.507Z,27.10
2018-07-25T18:11:11.953Z,27.10
2018-07-25T18:13:45.946Z,27.00
2018-07-25T18:16:14.433Z,27.00
2018-07-25T18:18:42.989Z,27.00
2018-07-25T18:21:11.491Z,26.90
2018-07-25T18:23:39.876Z,27.10
2018-07-25T18:26:08.485Z,28.40
2018-07-25T18:28:36.917Z,28.00
2018-07-25T18:31:06.345Z,28.50
2018-07-25T18:33:34.794Z,28.60
2018-07-25T18:36:03.443Z,28.90
2018-07-25T18:38:31.900Z,29.20
2018-07-25T18:41:00.492Z,29.80
2018-07-25T18:43:29.893Z,29.50
2018-07-25T18:45:58.777Z,30.10
2018-07-25T18:48:27.233Z,30.50
2018-07-25T18:50:56.017Z,31.20
2018-07-25T18:53:24.501Z,32.30
2018-07-25T18:55:53.544Z,32.50
2018-07-25T18:58:22.818Z,33.10
2018-07-25T19:00:51.382Z,33.60
2018-07-25T19:03:19.875Z,34.00
2018-07-25T19:05:48.434Z,34.50
2018-07-25T19:08:17.117Z,34.50
2018-07-25T19:10:45.707Z,34.10
2018-07-25T19:13:19.631Z,34.90
2018-07-25T19:15:48.188Z,35.00
2018-07-25T19:18:16.845Z,35.30
2018-07-25T19:20:45.286Z,36.10
2018-07-25T19:23:13.761Z,35.70
2018-07-25T19:25:42.257Z,36.40
2018-07-25T19:28:10.697Z,36.90
2018-07-25T19:30:39.212Z,36.50
2018-07-25T19:33:07.699Z,37.30
2018-07-25T19:35:36.106Z,37.70
2018-07-25T19:38:04.637Z,38.20
2018-07-25T19:40:33.335Z,38.90
2018-07-25T19:43:01.815Z,38.90
2018-07-25T19:45:30.285Z,38.70
2018-07-25T19:47:58.758Z,38.70
2018-07-25T19:50:27.609Z,38.60
2018-07-25T19:52:56.174Z,38.60
2018-07-25T19:55:24.848Z,38.60
2018-07-25T19:57:53.865Z,38.50
2018-07-25T20:00:22.718Z,38.60
2018-07-25T20:02:51.190Z,39.00
2018-07-25T20:05:19.786Z,39.20
2018-07-25T20:07:49.293Z,40.00
2018-07-25T20:10:17.969Z,40.00
2018-07-25T20:12:46.550Z,40.20
2018-07-25T20:15:20.308Z,40.90
2018-07-25T20:17:48.916Z,41.20
2018-07-25T20:20:17.449Z,41.40
2018-07-25T20:22:45.900Z,41.90
2018-07-25T20:25:14.736Z,42.40
2018-07-25T20:27:43.130Z,42.70
2018-07-25T20:30:11.886Z,42.90
2018-07-25T20:32:40.313Z,43.20
2018-07-25T20:35:08.773Z,43.50
2018-07-25T20:37:37.186Z,44.10
2018-07-25T20:40:06.029Z,43.70
2018-07-25T20:42:34.896Z,44.00
2018-07-25T20:45:03.422Z,44.20
2018-07-25T20:47:31.882Z,44.40
2018-07-25T20:50:00.393Z,44.10
2018-07-25T20:52:28.816Z,43.90
2018-07-25T20:54:57.308Z,44.70
2018-07-25T20:57:25.732Z,44.60
2018-07-25T20:59:54.545Z,44.60
2018-07-25T21:02:23.093Z,44.60
2018-07-25T21:04:51.550Z,46.10
2018-07-25T21:07:19.956Z,45.70
2018-07-25T21:09:48.497Z,46.30
2018-07-25T21:12:17.148Z,46.50
2018-07-25T21:14:45.981Z,46.80
2018-07-25T21:17:14.385Z,46.80
2018-07-25T21:19:42.807Z,46.50
2018-07-25T21:22:11.218Z,47.40
2018-07-25T21:24:39.780Z,47.30
2018-07-25T21:27:08.796Z,47.60
2018-07-25T21:29:37.434Z,47.70
2018-07-25T21:34:34.089Z,47.80
2018-07-25T21:37:02.478Z,48.10
2018-07-25T21:39:30.992Z,48.00
2018-07-25T21:41:59.381Z,48.10
2018-07-25T21:44:27.844Z,48.40
2018-07-25T21:46:56.266Z,48.30
2018-07-25T21:49:24.679Z,48.50
2018-07-25T21:51:53.213Z,48.50
2018-07-25T21:54:21.608Z,48.50
2018-07-25T21:56:50.004Z,48.60
2018-07-25T21:59:18.430Z,48.80
2018-07-25T22:01:46.973Z,49.20
2018-07-25T22:04:15.394Z,49.30
2018-07-25T22:06:43.919Z,49.60
2018-07-25T22:09:12.724Z,50.20
2018-07-25T22:11:41.629Z,50.80
2018-07-25T22:14:10.720Z,50.80
2018-07-25T22:16:39.177Z,50.60
2018-07-25T22:19:07.598Z,50.60
2018-07-25T22:21:36.048Z,51.40
2018-07-25T22:24:04.465Z,50.60
2018-07-25T22:26:33.266Z,50.60
2018-07-25T22:29:01.889Z,50.50
2018-07-25T22:31:30.319Z,50.40
2018-07-25T22:33:59.054Z,50.40
2018-07-25T22:36:27.465Z,50.40
2018-07-25T22:38:56.038Z,50.90
2018-07-25T22:41:24.660Z,50.40
2018-07-25T22:43:53.167Z,50.80
2018-07-25T22:46:21.687Z,51.10
2018-07-25T22:48:50.090Z,51.70
2018-07-25T22:51:18.526Z,51.70
2018-07-25T22:53:47.143Z,52.00
2018-07-25T22:56:15.563Z,52.20
2018-07-25T22:58:44.055Z,52.30
2018-07-25T23:01:12.450Z,52.30
2018-07-25T23:03:40.805Z,52.20
2018-07-25T23:06:09.229Z,52.20
2018-07-25T23:08:37.650Z,52.40
2018-07-25T23:11:06.097Z,52.50
2018-07-25T23:13:34.481Z,53.00
2018-07-25T23:18:31.375Z,52.80
2018-07-25T23:20:59.749Z,53.10
2018-07-25T23:23:28.152Z,53.30
2018-07-25T23:25:56.549Z,53.60
2018-07-25T23:28:25.428Z,53.30
2018-07-25T23:30:53.844Z,52.90
2018-07-25T23:35:50.409Z,53.80
2018-07-25T23:38:18.844Z,54.40
2018-07-25T23:40:47.403Z,54.50
2018-07-25T23:43:15.973Z,54.70
2018-07-25T23:45:44.319Z,54.50
2018-07-25T23:48:12.745Z,54.60
2018-07-25T23:50:41.385Z,55.00
2018-07-25T23:53:09.799Z,55.40
2018-07-25T23:55:38.319Z,55.60
2018-07-25T23:58:06.745Z,55.80
